Aviation Digital Data Service (ADDS)

Output produced by METARs form (0717 UTC 24 March 2019)
found at http://www.aviationweather.gov/metar/data/
 
KBDG 240655Z AUTO 02005KT 10SM 03/00 A3014 RMK AO1 T00311001
KBMC 240655Z AUTO 03003KT 10SM SCT039 SCT047 OVC065 07/05 A3000 RMK AO1 T00740052
KBCE 240653Z AUTO 17012KT 10SM SCT080 02/M02 A3007 RMK AO2 SNB0555E04 SLP135 P0000 T00171022 400611072
KBCE 240532Z 2406/2506 26005KT P6SM SCT040 BKN080 
     FM241800 27011KT P6SM SCT100
       
KCDC 240653Z AUTO 17005KT 10SM FEW050 OVC090 06/02 A3001 RMK AO2 RAB22E36 SLP133 P0000 T00610017 401331011
KCDC 240532Z 2406/2506 19010KT P6SM SCT050 BKN100 
     FM241800 25008KT P6SM SCT060 SCT100 
     FM250300 16005KT P6SM SCT060 SCT100
       
KDTA 240655Z AUTO 00000KT 10SM SCT065 SCT070 BKN080 04/03 A3000 RMK AO1
KHVE 240655Z AUTO 00000KT 10SM SCT070 BKN090 OVC100 07/04 A3003 RMK AO2
KKNB 240655Z AUTO 08005KT 10SM CLR 04/03 A3009 RMK A01
KLGU 240651Z AUTO 00000KT 10SM OVC080 04/02 A3001 RMK AO2 SLP154 T00440022 401060044 $
KLGU 240532Z 2406/2506 VRB04KT P6SM VCSH SCT020 BKN040 
     FM241100 VRB05KT P6SM -RA SCT020 OVC035 
     FM242000 27007KT P6SM VCSH BKN040 
     FM250000 VRB04KT P6SM SCT040
       
KMLF 240652Z AUTO 20007KT 10SM BKN060 BKN120 06/01 A2999 RMK AO2 SLP133 T00610011 401330006
KCNY 240653Z AUTO 08004KT 10SM FEW075 OVC100 08/05 A3000 RMK AO2 SLP144 T00780050 401390011
KCNY 240534Z 2406/2506 00000KT P6SM OVC090 
     FM241900 27006KT P6SM FEW050 BKN090 
     FM242300 28007KT P6SM FEW250 
     FM250100 32005KT P6SM SKC
       
KOGD 240653Z AUTO VRB03KT 10SM -RA SCT039 OVC049 07/05 A2999 RMK AO2 RAB06 SLP139 P0000 T00670050 401170044
KOGD 240532Z 2406/2506 01009KT P6SM VCSH SCT035 BKN070 
     FM240900 18005KT P6SM -RA SCT020 BKN040 
     FM241500 19005KT P6SM -SHRA SCT040 BKN060 
     FM241900 28007KT P6SM VCSH BKN060 
     FM242100 27007KT P6SM SCT060 BKN100 
     FM250300 16007KT P6SM SCT100
       
KPVU 240656Z AUTO 13005KT 10SM BKN060 BKN075 BKN110 07/03 A3001 RMK AO2 SLP149 T00720033 401280039
KPVU 240532Z 2406/2506 VRB04KT P6SM VCSH SCT040 BKN060 
     FM241600 26007KT P6SM VCSH BKN070 
     FM242000 27007KT P6SM SCT070
       
K74V 240655Z AUTO 30006KT 10SM -SN BKN033 OVC042 05/02 A3008 RMK AO2
KSLC 240654Z 24003KT 6SM -RA BR OVC036 07/04 A2999 RMK AO2 CIG 030 NW RNWY SLP141 P0002 T00670044 401220061
KSLC 240532Z 2406/2512 19009KT P6SM -RA BKN035 OVC045 
     FM241600 16011KT P6SM VCSH SCT040 OVC060 
     FM241900 29009KT P6SM SCT050 BKN080 
     FM250300 16007KT P6SM SCT080
       
KU42 240715Z AUTO 21006KT 10SM OVC048 06/04 A3000 RMK AO1 T00550040
KSGU 240656Z AUTO 16006KT 10SM OVC100 14/03 A3000 RMK AO2 SLP143 T01390028 401940056 PNO $
KSGU 240532Z 2406/2506 VRB04KT P6SM BKN120 
     FM241900 28007KT P6SM SCT120 
     FM250200 VRB04KT P6SM SCT120
       
KTVY 240715Z AUTO 16003KT 7SM -RA BKN027 OVC033 05/04 A3001 RMK AO2 P0005
KVEL 240653Z AUTO 27004KT 10SM BKN050 OVC060 03/M01 A3005 RMK AO2 SLP170 T00331006 401061006
KVEL 240534Z 2406/2506 31006KT P6SM VCSH SCT060 BKN090 
     FM240800 VRB03KT P6SM VCSH BKN030 OVC050 
     FM242100 25006KT P6SM VCSH SCT030 BKN060 
     FM250100 29004KT P6SM FEW045 SCT110
       
KENV 240707Z AUTO 26003KT 10SM -RA FEW010 SCT015 OVC030 06/06 A3001 RMK AO2 P0001
KENV 240532Z 2406/2506 VRB04KT P6SM -RA BKN011 
     FM241000 31010KT P6SM SCT060 BKN080 
     FM241200 29013G17KT P6SM FEW100 
     FM242100 28012KT P6SM SCT070 
     FM250300 VRB04KT P6SM SCT070